createdAt,value
2022-11-30T00:01:48.821Z,80.02
2022-11-30T00:04:17.882Z,80.44
2022-11-30T00:06:47.379Z,80.08
2022-11-30T00:09:16.625Z,80.35
2022-11-30T00:11:45.980Z,80.12
2022-11-30T00:14:15.017Z,80.52
2022-11-30T00:16:44.540Z,80.60
2022-11-30T00:19:14.979Z,80.54
2022-11-30T00:21:44.990Z,80.97
2022-11-30T00:24:14.170Z,80.62
2022-11-30T00:26:43.640Z,80.51
2022-11-30T00:29:13.113Z,79.81
2022-11-30T00:31:42.497Z,79.69
2022-11-30T00:34:11.536Z,80.42
2022-11-30T00:36:42.277Z,80.88
2022-11-30T00:39:11.516Z,79.96
2022-11-30T00:41:40.982Z,80.34
2022-11-30T00:44:10.120Z,80.29
2022-11-30T00:46:39.371Z,80.27
2022-11-30T00:49:08.519Z,80.38
2022-11-30T00:51:39.067Z,80.39
2022-11-30T00:54:09.587Z,80.37
2022-11-30T00:56:39.063Z,80.02
2022-11-30T00:59:08.230Z,79.93
2022-11-30T01:01:37.709Z,79.78
2022-11-30T01:04:07.478Z,79.90
2022-11-30T01:06:38.104Z,79.63
2022-11-30T01:09:09.255Z,79.68
2022-11-30T01:11:38.653Z,79.90
2022-11-30T01:14:07.697Z,80.38
2022-11-30T01:16:37.049Z,80.23
2022-11-30T01:19:06.145Z,80.52
2022-11-30T01:21:35.474Z,80.07
2022-11-30T01:24:04.724Z,79.81
2022-11-30T01:26:35.452Z,79.92
2022-11-30T01:29:04.533Z,80.38
2022-11-30T01:31:36.850Z,80.46
2022-11-30T01:34:06.077Z,80.30
2022-11-30T01:36:36.516Z,79.51
2022-11-30T01:39:10.059Z,79.64
2022-11-30T01:41:40.808Z,80.36
2022-11-30T01:44:48.878Z,80.18
2022-11-30T01:47:19.523Z,80.49
2022-11-30T01:49:52.547Z,79.96
2022-11-30T01:52:26.046Z,80.33
2022-11-30T01:55:01.732Z,80.52
2022-11-30T01:57:37.433Z,80.34
2022-11-30T02:00:09.978Z,80.76
2022-11-30T02:02:58.086Z,80.40
2022-11-30T02:05:28.058Z,80.92
2022-11-30T02:07:58.412Z,80.76
2022-11-30T02:10:31.210Z,81.04
2022-11-30T02:13:32.877Z,80.86
2022-11-30T02:16:09.414Z,80.68
2022-11-30T02:18:47.699Z,80.86
2022-11-30T02:21:20.460Z,80.93
2022-11-30T02:24:14.665Z,81.64
2022-11-30T02:26:58.605Z,82.00
2022-11-30T02:29:32.807Z,81.99
2022-11-30T02:32:10.722Z,82.05
2022-11-30T02:34:43.962Z,81.85
2022-11-30T02:37:16.209Z,81.44
2022-11-30T02:39:46.141Z,82.28
2022-11-30T02:42:16.634Z,81.45
2022-11-30T02:44:50.368Z,81.92
2022-11-30T02:47:27.358Z,82.72
2022-11-30T02:50:01.620Z,82.59
2022-11-30T02:52:33.097Z,81.94
2022-11-30T02:55:03.481Z,81.31
2022-11-30T02:57:32.638Z,80.92
2022-11-30T03:00:07.213Z,82.60
2022-11-30T03:02:36.355Z,81.88
2022-11-30T03:05:06.367Z,81.91
2022-11-30T03:07:35.789Z,81.68
2022-11-30T03:10:06.178Z,82.00
2022-11-30T03:12:35.328Z,81.49
2022-11-30T03:15:06.514Z,82.35
2022-11-30T03:17:35.500Z,82.69
2022-11-30T03:20:05.564Z,82.34
2022-11-30T03:22:34.620Z,82.38
2022-11-30T03:25:04.033Z,82.18
2022-11-30T03:27:33.217Z,81.78
2022-11-30T03:30:02.613Z,81.28
2022-11-30T03:34:09.173Z,82.15
2022-11-30T03:36:39.953Z,82.70
2022-11-30T03:39:09.468Z,82.33
2022-11-30T03:41:39.043Z,82.10
2022-11-30T03:44:08.133Z,82.59
2022-11-30T03:46:37.486Z,82.46
2022-11-30T03:49:06.608Z,82.31
2022-11-30T03:51:35.924Z,82.32
2022-11-30T03:54:06.413Z,82.33
2022-11-30T03:56:35.800Z,82.53
2022-11-30T03:59:04.860Z,82.41
2022-11-30T04:01:34.406Z,82.18
2022-11-30T04:04:03.552Z,82.08
2022-11-30T04:06:32.896Z,81.99
2022-11-30T04:09:01.991Z,82.45
2022-11-30T04:11:32.672Z,83.42
2022-11-30T04:14:01.873Z,83.07
2022-11-30T04:16:31.323Z,82.53
2022-11-30T04:19:00.544Z,81.58
2022-11-30T04:21:29.918Z,81.43
2022-11-30T04:23:59.021Z,81.46
2022-11-30T04:26:28.481Z,81.33
2022-11-30T04:29:03.208Z,82.06
2022-11-30T04:31:33.935Z,82.11
2022-11-30T04:34:03.145Z,81.40
2022-11-30T04:36:32.416Z,81.67
2022-11-30T04:39:01.518Z,81.46
2022-11-30T04:41:30.955Z,81.11
2022-11-30T04:44:01.473Z,81.82
2022-11-30T04:46:30.883Z,81.89
2022-11-30T04:49:00.192Z,82.22
2022-11-30T04:51:29.873Z,81.61
2022-11-30T04:53:58.865Z,81.69
2022-11-30T04:56:28.288Z,81.89
2022-11-30T04:58:57.349Z,81.88
2022-11-30T05:01:28.151Z,82.11
2022-11-30T05:03:57.765Z,82.04
2022-11-30T05:06:27.232Z,81.86
2022-11-30T05:08:56.395Z,82.22
2022-11-30T05:11:25.744Z,82.23
2022-11-30T05:13:54.875Z,81.83
2022-11-30T05:16:24.317Z,82.01
2022-11-30T05:18:54.843Z,82.03
2022-11-30T05:21:24.267Z,82.31
2022-11-30T05:23:53.437Z,82.40
2022-11-30T05:26:22.855Z,83.41
2022-11-30T05:28:51.870Z,82.90
2022-11-30T05:31:21.319Z,82.46
2022-11-30T05:33:53.683Z,83.03
2022-11-30T05:36:23.257Z,83.19
2022-11-30T05:38:52.337Z,82.36
2022-11-30T05:41:21.745Z,83.06
2022-11-30T05:43:53.264Z,83.22
2022-11-30T05:46:22.708Z,83.44
2022-11-30T05:48:53.439Z,83.44
2022-11-30T05:51:23.467Z,83.31
2022-11-30T05:53:52.554Z,82.99
2022-11-30T05:56:22.965Z,83.16
2022-11-30T05:58:52.125Z,82.76
2022-11-30T06:01:22.790Z,82.56
2022-11-30T06:03:53.526Z,82.67
2022-11-30T06:06:23.947Z,82.66
2022-11-30T06:08:53.048Z,82.55
2022-11-30T06:11:22.384Z,82.63
2022-11-30T06:13:51.548Z,82.54
2022-11-30T06:16:20.981Z,83.14
2022-11-30T06:18:50.129Z,82.57
2022-11-30T06:21:24.392Z,82.43
2022-11-30T06:23:54.445Z,82.58
2022-11-30T06:26:24.190Z,82.34
2022-11-30T06:28:53.231Z,82.43
2022-11-30T06:31:22.670Z,82.37
2022-11-30T06:33:52.011Z,82.77
2022-11-30T06:36:24.724Z,82.57
2022-11-30T06:38:54.004Z,82.27
2022-11-30T06:41:23.751Z,82.15
2022-11-30T06:43:53.050Z,82.18
2022-11-30T06:46:22.875Z,81.92
2022-11-30T06:48:52.258Z,81.79
2022-11-30T06:51:23.156Z,81.86
2022-11-30T06:53:52.298Z,82.49
2022-11-30T06:56:22.173Z,82.33
2022-11-30T06:58:52.158Z,81.81
2022-11-30T07:01:21.768Z,82.35
2022-11-30T07:03:51.038Z,82.03
2022-11-30T07:06:20.469Z,81.90
2022-11-30T07:08:51.029Z,81.63
2022-11-30T07:11:20.323Z,81.98
2022-11-30T07:13:49.381Z,82.36
2022-11-30T07:16:18.752Z,82.64
2022-11-30T07:18:47.859Z,82.36
2022-11-30T07:21:17.391Z,81.92
2022-11-30T07:24:04.039Z,82.11
2022-11-30T07:26:35.174Z,81.74
2022-11-30T07:29:05.359Z,81.79
2022-11-30T07:31:35.612Z,81.83
2022-11-30T07:34:08.060Z,81.64
2022-11-30T07:36:38.110Z,82.47
2022-11-30T07:39:07.362Z,83.02
2022-11-30T07:41:38.058Z,82.11
2022-11-30T07:44:07.750Z,82.47
2022-11-30T07:46:38.085Z,81.69
2022-11-30T07:49:08.822Z,81.79
2022-11-30T07:51:38.860Z,81.68
2022-11-30T07:54:08.133Z,81.36
2022-11-30T07:56:38.941Z,81.36
2022-11-30T07:59:08.207Z,81.73
2022-11-30T08:01:37.736Z,80.99
2022-11-30T08:04:07.170Z,81.13
2022-11-30T08:06:36.603Z,80.83
2022-11-30T08:09:06.220Z,80.92
2022-11-30T08:11:39.191Z,81.40
2022-11-30T08:14:08.190Z,80.60
2022-11-30T08:16:38.966Z,80.32
2022-11-30T08:19:08.375Z,82.29
2022-11-30T08:21:38.168Z,81.51
2022-11-30T08:24:07.596Z,80.98
2022-11-30T08:26:37.813Z,80.83
2022-11-30T08:29:08.294Z,81.30
2022-11-30T08:31:38.820Z,81.05
2022-11-30T08:34:11.011Z,80.85
2022-11-30T08:36:41.451Z,81.55
2022-11-30T08:39:13.013Z,81.19
2022-11-30T08:41:42.389Z,81.47
2022-11-30T08:44:12.966Z,80.94
2022-11-30T08:46:51.614Z,80.58
2022-11-30T08:49:23.546Z,80.92
2022-11-30T08:54:47.064Z,81.28
2022-11-30T08:57:17.520Z,80.44
2022-11-30T08:59:48.884Z,81.18
2022-11-30T09:02:20.770Z,81.53
2022-11-30T09:04:51.807Z,81.14
2022-11-30T09:07:21.265Z,80.77
2022-11-30T09:09:50.577Z,81.63
2022-11-30T09:12:19.912Z,81.22
2022-11-30T09:14:57.411Z,81.66
2022-11-30T09:17:27.798Z,81.33
2022-11-30T09:19:57.048Z,81.35
2022-11-30T09:22:26.665Z,81.20
2022-11-30T09:24:56.058Z,81.10
2022-11-30T09:27:30.256Z,80.61
2022-11-30T09:30:01.144Z,80.08
2022-11-30T09:32:30.631Z,80.16
2022-11-30T09:34:59.604Z,79.88
2022-11-30T09:37:28.877Z,80.04
2022-11-30T09:39:58.034Z,79.62
2022-11-30T09:42:39.942Z,79.52
2022-11-30T09:45:20.335Z,79.21
2022-11-30T09:48:29.593Z,78.77
2022-11-30T09:51:06.620Z,79.28
2022-11-30T09:53:41.729Z,79.31
2022-11-30T09:56:30.652Z,79.14
2022-11-30T09:59:04.116Z,79.15
2022-11-30T10:01:37.602Z,79.22
2022-11-30T10:04:07.778Z,78.96
2022-11-30T10:06:44.695Z,80.09
2022-11-30T10:09:32.121Z,79.27
2022-11-30T10:12:07.019Z,80.22
2022-11-30T10:15:08.350Z,79.73
2022-11-30T10:17:47.225Z,79.01
2022-11-30T10:20:39.682Z,79.05
2022-11-30T10:23:27.127Z,78.97
2022-11-30T10:25:58.607Z,78.64
2022-11-30T10:28:48.504Z,78.22
2022-11-30T10:31:19.763Z,78.19
2022-11-30T10:33:52.288Z,79.11
2022-11-30T10:36:28.674Z,79.24
2022-11-30T10:39:03.848Z,78.80
2022-11-30T10:41:37.651Z,78.88
2022-11-30T10:44:12.409Z,78.57
2022-11-30T10:46:46.752Z,79.00
2022-11-30T10:49:19.816Z,79.66
2022-11-30T10:51:55.102Z,78.59
2022-11-30T10:54:24.932Z,78.87
2022-11-30T10:56:54.445Z,79.61
2022-11-30T10:59:28.176Z,80.25
2022-11-30T11:01:57.773Z,79.29
2022-11-30T11:04:28.613Z,78.63
2022-11-30T11:07:00.513Z,79.52
2022-11-30T11:09:38.460Z,78.75
2022-11-30T11:12:15.531Z,78.48
2022-11-30T11:14:44.581Z,77.58
2022-11-30T11:17:26.208Z,77.49
2022-11-30T11:19:56.831Z,78.40
2022-11-30T11:22:28.295Z,78.52
2022-11-30T11:25:10.924Z,78.55
2022-11-30T11:27:44.834Z,78.08
2022-11-30T11:30:20.032Z,77.56
2022-11-30T11:33:01.122Z,77.25
2022-11-30T11:35:40.508Z,79.43
2022-11-30T11:38:24.896Z,78.97
2022-11-30T11:40:57.266Z,78.91
2022-11-30T11:43:28.925Z,78.90
2022-11-30T11:46:02.577Z,79.00
2022-11-30T11:48:36.245Z,78.65
2022-11-30T11:51:08.818Z,78.61
2022-11-30T11:53:58.324Z,78.79
2022-11-30T11:56:29.591Z,78.74
2022-11-30T11:59:03.768Z,78.78
2022-11-30T12:01:44.300Z,78.27
2022-11-30T12:04:34.421Z,77.74
2022-11-30T12:07:18.064Z,78.03
2022-11-30T12:10:43.220Z,77.96
2022-11-30T12:13:01.492Z,78.18
2022-11-30T12:15:37.875Z,78.16
2022-11-30T12:18:23.769Z,77.93
2022-11-30T12:20:59.300Z,77.40
2022-11-30T12:23:54.707Z,77.18
2022-11-30T12:26:35.787Z,77.29
2022-11-30T12:29:23.328Z,76.66
2022-11-30T12:32:24.534Z,76.68
2022-11-30T12:35:10.075Z,77.52
2022-11-30T12:37:49.910Z,76.76
2022-11-30T12:40:33.075Z,77.06
2022-11-30T12:43:14.061Z,76.39
2022-11-30T12:45:45.281Z,76.69
2022-11-30T12:48:27.445Z,76.72
2022-11-30T12:51:09.739Z,78.03
2022-11-30T12:53:44.733Z,77.59
2022-11-30T12:56:28.854Z,77.32
2022-11-30T12:59:07.983Z,78.13
2022-11-30T13:01:51.329Z,78.32
2022-11-30T13:04:27.940Z,77.68
2022-11-30T13:07:01.514Z,78.34
2022-11-30T13:09:34.645Z,77.71
2022-11-30T13:12:12.303Z,77.40
2022-11-30T13:14:41.966Z,77.21
2022-11-30T13:17:18.166Z,77.19
2022-11-30T13:19:55.675Z,77.16
2022-11-30T13:22:33.166Z,76.50
2022-11-30T13:25:13.595Z,76.51
2022-11-30T13:27:54.475Z,77.23
2022-11-30T13:30:36.035Z,76.35
2022-11-30T13:33:53.953Z,75.81
2022-11-30T13:36:39.550Z,76.98
2022-11-30T13:39:30.284Z,76.96
2022-11-30T13:42:34.463Z,77.12
2022-11-30T13:45:32.272Z,77.66
2022-11-30T13:48:17.578Z,77.93
2022-11-30T13:50:49.956Z,76.85
2022-11-30T13:53:28.757Z,76.64
2022-11-30T13:56:04.013Z,77.87
2022-11-30T13:58:33.790Z,77.23
2022-11-30T14:01:28.941Z,77.10
2022-11-30T14:04:31.947Z,77.43
2022-11-30T14:07:01.463Z,77.91
2022-11-30T14:10:07.319Z,77.82
2022-11-30T14:13:01.600Z,77.41
2022-11-30T14:15:53.706Z,77.22
2022-11-30T14:18:32.751Z,77.60
2022-11-30T14:21:05.209Z,77.77
2022-11-30T14:23:49.727Z,77.51
2022-11-30T14:26:25.897Z,77.88
2022-11-30T14:29:02.740Z,77.90
2022-11-30T14:31:37.929Z,77.77
2022-11-30T14:34:16.805Z,77.22
2022-11-30T14:36:49.988Z,77.79
2022-11-30T14:39:28.303Z,78.17
2022-11-30T14:41:57.707Z,78.12
2022-11-30T14:44:27.683Z,78.29
2022-11-30T14:46:57.592Z,78.16
2022-11-30T14:49:28.197Z,78.33
2022-11-30T14:52:03.693Z,78.39
2022-11-30T14:54:51.061Z,78.46
2022-11-30T14:57:29.199Z,78.04
2022-11-30T14:59:58.924Z,77.80
2022-11-30T15:02:31.521Z,78.26
2022-11-30T15:05:02.724Z,77.86
2022-11-30T15:07:32.276Z,78.49
2022-11-30T15:10:07.499Z,77.38
2022-11-30T15:12:38.264Z,77.93
2022-11-30T15:15:15.393Z,78.22
2022-11-30T15:17:52.377Z,78.04
2022-11-30T15:20:28.761Z,79.24
2022-11-30T15:23:01.654Z,78.06
2022-11-30T15:25:36.751Z,79.12
2022-11-30T15:28:07.526Z,78.51
2022-11-30T15:30:40.451Z,77.66
2022-11-30T15:33:19.229Z,77.70
2022-11-30T15:38:43.114Z,77.56
2022-11-30T15:41:20.245Z,78.39
2022-11-30T15:43:55.493Z,78.35
2022-11-30T15:46:39.983Z,78.40
2022-11-30T15:49:18.280Z,78.97
2022-11-30T15:51:59.199Z,78.37
2022-11-30T15:54:49.080Z,78.25
2022-11-30T15:57:18.677Z,78.46
2022-11-30T16:00:10.306Z,77.88
2022-11-30T16:02:39.963Z,79.09
2022-11-30T16:05:26.898Z,78.39
2022-11-30T16:08:00.059Z,78.68
2022-11-30T16:10:34.964Z,77.91
2022-11-30T16:13:04.401Z,78.62
2022-11-30T16:15:36.138Z,77.95
2022-11-30T16:18:16.168Z,78.42
2022-11-30T16:20:46.385Z,78.57
2022-11-30T16:23:17.775Z,78.83
2022-11-30T16:25:48.644Z,79.64
2022-11-30T16:28:19.958Z,79.12
2022-11-30T16:30:50.483Z,78.22
2022-11-30T16:33:21.350Z,78.48
2022-11-30T16:35:55.723Z,79.06
2022-11-30T16:38:27.217Z,79.03
2022-11-30T16:40:57.025Z,79.82
2022-11-30T16:43:26.900Z,80.39
2022-11-30T16:45:56.272Z,79.97
2022-11-30T16:48:25.450Z,79.97
2022-11-30T16:50:54.856Z,79.75
2022-11-30T16:53:28.650Z,79.95
2022-11-30T16:55:58.344Z,80.67
2022-11-30T16:58:27.398Z,80.41
2022-11-30T17:00:56.846Z,80.50
2022-11-30T17:03:31.039Z,81.25
2022-11-30T17:06:00.462Z,80.80
2022-11-30T17:08:31.115Z,80.22
2022-11-30T17:11:00.538Z,79.99
2022-11-30T17:13:29.618Z,80.37
2022-11-30T17:15:58.988Z,80.17
2022-11-30T17:18:28.284Z,80.16
2022-11-30T17:20:57.798Z,80.48
2022-11-30T17:23:26.891Z,80.47
2022-11-30T17:25:57.584Z,80.71
2022-11-30T17:28:26.660Z,80.54
2022-11-30T17:30:56.038Z,81.52
2022-11-30T17:33:25.234Z,81.36
2022-11-30T17:35:54.941Z,81.74
2022-11-30T17:38:26.322Z,81.27
2022-11-30T17:40:57.160Z,81.36
2022-11-30T17:43:26.333Z,80.79
2022-11-30T17:45:55.771Z,80.76
2022-11-30T17:48:24.950Z,80.64
2022-11-30T17:50:54.543Z,80.66
2022-11-30T17:53:23.650Z,80.44
2022-11-30T17:56:03.376Z,80.33
2022-11-30T17:58:36.137Z,79.78
2022-11-30T18:01:08.289Z,79.62
2022-11-30T18:03:37.488Z,79.17
2022-11-30T18:06:07.117Z,79.24
2022-11-30T18:08:38.014Z,79.34
2022-11-30T18:11:11.688Z,79.59
2022-11-30T18:13:41.214Z,79.21
2022-11-30T18:16:13.122Z,78.99
2022-11-30T18:18:47.323Z,78.94
2022-11-30T18:21:20.304Z,78.55
2022-11-30T18:23:50.304Z,78.73
2022-11-30T18:26:23.350Z,78.76
2022-11-30T18:28:54.465Z,78.26
2022-11-30T18:31:23.891Z,78.54
2022-11-30T18:33:56.845Z,78.46
2022-11-30T18:36:26.548Z,78.62
2022-11-30T18:38:56.197Z,78.50
2022-11-30T18:41:28.666Z,78.79
2022-11-30T18:43:58.062Z,78.53
2022-11-30T18:46:27.597Z,78.35
2022-11-30T18:48:56.726Z,78.25
2022-11-30T18:51:29.645Z,78.34
2022-11-30T18:54:00.376Z,78.20
2022-11-30T18:56:33.382Z,78.17
2022-11-30T18:59:04.177Z,78.06
2022-11-30T19:01:34.490Z,78.30
2022-11-30T19:04:05.904Z,78.35
2022-11-30T19:06:35.963Z,78.03
2022-11-30T19:09:09.479Z,78.84
2022-11-30T19:11:41.763Z,78.27
2022-11-30T19:14:13.214Z,78.14
2022-11-30T19:16:43.203Z,79.17
2022-11-30T19:19:14.992Z,79.03
2022-11-30T19:21:47.645Z,79.25
2022-11-30T19:24:17.244Z,79.36
2022-11-30T19:26:47.981Z,79.02
2022-11-30T19:29:17.337Z,78.78
2022-11-30T19:31:46.661Z,78.75
2022-11-30T19:34:15.782Z,78.48
2022-11-30T19:36:45.208Z,78.28
2022-11-30T19:39:14.301Z,79.07
2022-11-30T19:41:43.667Z,78.64
2022-11-30T19:44:16.272Z,78.90
2022-11-30T19:46:45.770Z,79.16
2022-11-30T19:49:15.725Z,78.86
2022-11-30T19:51:45.422Z,78.82
2022-11-30T19:54:14.561Z,78.73
2022-11-30T19:56:44.413Z,78.94
2022-11-30T19:59:14.814Z,79.36
2022-11-30T20:01:44.208Z,79.60
2022-11-30T20:04:13.479Z,79.66
2022-11-30T20:06:42.949Z,79.26
2022-11-30T20:09:12.775Z,79.06
2022-11-30T20:11:42.368Z,79.01
2022-11-30T20:14:17.764Z,79.08
2022-11-30T20:16:47.113Z,79.73
2022-11-30T20:19:17.344Z,79.33
2022-11-30T20:21:48.287Z,79.40
2022-11-30T20:24:17.463Z,78.85
2022-11-30T20:26:47.341Z,79.63
2022-11-30T20:29:19.337Z,79.95
2022-11-30T20:31:50.393Z,79.47
2022-11-30T20:34:19.720Z,79.16
2022-11-30T20:36:49.448Z,79.39
2022-11-30T20:39:18.714Z,79.29
2022-11-30T20:41:48.103Z,78.77
2022-11-30T20:44:19.113Z,79.13
2022-11-30T20:46:48.515Z,78.69
2022-11-30T20:49:21.147Z,78.16
2022-11-30T20:51:51.539Z,78.53
2022-11-30T20:54:20.998Z,78.37
2022-11-30T20:56:51.370Z,78.93
2022-11-30T20:59:26.440Z,78.44
2022-11-30T21:01:57.411Z,79.05
2022-11-30T21:04:27.540Z,79.07
2022-11-30T21:06:57.035Z,79.13
2022-11-30T21:09:26.231Z,78.77
2022-11-30T21:11:55.720Z,78.55
2022-11-30T21:14:26.204Z,79.15
2022-11-30T21:16:55.616Z,78.96
2022-11-30T21:19:24.815Z,78.57
2022-11-30T21:21:56.064Z,78.80
2022-11-30T21:24:25.046Z,79.54
2022-11-30T21:26:54.497Z,79.41
2022-11-30T21:29:25.187Z,79.28
2022-11-30T21:31:54.499Z,79.53
2022-11-30T21:34:23.744Z,78.57
2022-11-30T21:36:53.202Z,78.98
2022-11-30T21:39:22.261Z,79.12
2022-11-30T21:41:51.559Z,79.31
2022-11-30T21:44:20.798Z,79.06
2022-11-30T21:46:51.805Z,78.87
2022-11-30T21:49:20.994Z,79.69
2022-11-30T21:51:50.557Z,79.73
2022-11-30T21:54:19.843Z,79.61
2022-11-30T21:56:52.400Z,79.29
2022-11-30T21:59:21.642Z,79.05
2022-11-30T22:01:52.432Z,79.37
2022-11-30T22:04:21.543Z,79.83
2022-11-30T22:06:51.109Z,80.21
2022-11-30T22:09:20.132Z,80.02
2022-11-30T22:11:49.491Z,80.02
2022-11-30T22:14:19.128Z,80.46
2022-11-30T22:16:48.478Z,80.47
2022-11-30T22:19:19.518Z,80.29
2022-11-30T22:21:50.405Z,80.18
2022-11-30T22:24:19.964Z,80.13
2022-11-30T22:26:50.153Z,79.63
2022-11-30T22:29:22.221Z,79.97
2022-11-30T22:31:54.027Z,80.02
2022-11-30T22:34:24.823Z,80.12
2022-11-30T22:36:53.960Z,80.96
2022-11-30T22:39:23.724Z,80.27
2022-11-30T22:41:56.100Z,80.33
2022-11-30T22:44:26.802Z,79.76
2022-11-30T22:46:55.967Z,80.34
2022-11-30T22:49:27.035Z,80.74
2022-11-30T22:51:56.167Z,80.24
2022-11-30T22:54:25.538Z,80.62
2022-11-30T22:56:54.946Z,80.17
2022-11-30T22:59:24.325Z,79.99
2022-11-30T23:01:53.500Z,80.24
2022-11-30T23:04:23.934Z,80.92
2022-11-30T23:06:54.601Z,80.83
2022-11-30T23:09:25.085Z,80.32
2022-11-30T23:11:54.204Z,80.47
2022-11-30T23:14:23.809Z,80.28
2022-11-30T23:16:52.820Z,80.64
2022-11-30T23:19:22.193Z,80.54
2022-11-30T23:21:51.351Z,80.58
2022-11-30T23:24:22.497Z,79.90
2022-11-30T23:26:52.064Z,80.16
2022-11-30T23:29:21.394Z,80.17
2022-11-30T23:31:51.031Z,80.46
2022-11-30T23:34:22.330Z,81.13
2022-11-30T23:36:53.230Z,80.71
2022-11-30T23:39:24.025Z,81.06
2022-11-30T23:41:53.171Z,80.79
2022-11-30T23:44:22.689Z,81.68
2022-11-30T23:46:51.709Z,81.16
2022-11-30T23:49:21.163Z,81.36
2022-11-30T23:51:50.338Z,81.23
2022-11-30T23:54:19.629Z,81.15
2022-11-30T23:56:50.131Z,81.43
2022-11-30T23:59:19.539Z,81.11
